createdAt,value
2018-06-27T00:00:00.680Z,13.00
2018-06-27T00:02:28.840Z,13.00
2018-06-27T00:04:56.992Z,13.00
2018-06-27T00:07:25.152Z,13.00
2018-06-27T00:09:53.349Z,12.90
2018-06-27T00:12:21.513Z,12.90
2018-06-27T00:14:49.707Z,12.90
2018-06-27T00:17:17.869Z,12.80
2018-06-27T00:19:46.057Z,12.80
2018-06-27T00:22:14.225Z,12.80
2018-06-27T00:24:42.388Z,12.70
2018-06-27T00:27:10.724Z,12.70
2018-06-27T00:29:38.891Z,12.70
2018-06-27T00:32:07.069Z,12.70
2018-06-27T00:34:35.266Z,12.70
2018-06-27T00:37:03.443Z,12.60
2018-06-27T00:39:31.628Z,12.60
2018-06-27T00:41:59.782Z,12.60
2018-06-27T00:44:27.947Z,12.60
2018-06-27T00:46:56.171Z,12.60
2018-06-27T00:49:24.326Z,12.50
2018-06-27T00:51:52.500Z,12.60
2018-06-27T00:54:20.653Z,12.50
2018-06-27T00:56:48.830Z,12.50
2018-06-27T00:59:16.969Z,12.50
2018-06-27T01:01:45.140Z,12.50
2018-06-27T01:04:13.293Z,12.50
2018-06-27T01:06:41.462Z,12.50
2018-06-27T01:09:10.231Z,12.50
2018-06-27T01:11:38.592Z,12.50
2018-06-27T01:14:06.748Z,12.50
2018-06-27T01:16:34.917Z,12.50
2018-06-27T01:19:03.085Z,12.60
2018-06-27T01:21:31.254Z,12.60
2018-06-27T01:23:59.420Z,12.70
2018-06-27T01:26:27.593Z,12.70
2018-06-27T01:28:55.737Z,12.80
2018-06-27T01:31:23.979Z,12.80
2018-06-27T01:33:52.160Z,12.80
2018-06-27T01:36:20.336Z,12.70
2018-06-27T01:38:48.514Z,12.70
2018-06-27T01:41:16.672Z,12.60
2018-06-27T01:43:44.805Z,12.60
2018-06-27T01:46:12.984Z,12.50
2018-06-27T01:48:41.136Z,12.40
2018-06-27T01:51:09.301Z,12.40
2018-06-27T01:53:38.364Z,12.30
2018-06-27T01:56:08.380Z,12.30
2018-06-27T01:58:36.899Z,12.20
2018-06-27T02:01:05.565Z,12.20
2018-06-27T02:03:33.750Z,12.10
2018-06-27T02:06:02.137Z,12.10
2018-06-27T02:08:30.293Z,12.10
2018-06-27T02:10:58.508Z,12.00
2018-06-27T02:13:26.680Z,12.00
2018-06-27T02:15:54.841Z,12.00
2018-06-27T02:18:23.008Z,12.00
2018-06-27T02:20:51.154Z,12.00
2018-06-27T02:23:19.328Z,11.90
2018-06-27T02:25:47.484Z,11.90
2018-06-27T02:28:15.669Z,11.90
2018-06-27T02:30:43.839Z,11.90
2018-06-27T02:35:44.256Z,11.90
2018-06-27T02:38:12.424Z,11.90
2018-06-27T02:40:40.565Z,11.80
2018-06-27T02:43:08.749Z,11.80
2018-06-27T02:45:36.902Z,11.80
2018-06-27T02:48:05.463Z,11.80
2018-06-27T02:50:33.636Z,11.70
2018-06-27T02:53:01.847Z,11.70
2018-06-27T02:55:30.006Z,11.70
2018-06-27T02:57:58.168Z,11.70
2018-06-27T03:00:26.438Z,11.70
2018-06-27T03:02:54.633Z,11.70
2018-06-27T03:05:22.791Z,11.80
2018-06-27T03:07:50.968Z,11.80
2018-06-27T03:12:58.313Z,11.80
2018-06-27T03:15:26.577Z,11.80
2018-06-27T03:17:54.797Z,11.80
2018-06-27T03:20:23.018Z,11.90
2018-06-27T03:22:51.212Z,12.00
2018-06-27T03:25:19.432Z,12.00
2018-06-27T03:27:47.720Z,12.00
2018-06-27T03:30:15.893Z,12.10
2018-06-27T03:32:44.112Z,12.10
2018-06-27T03:35:12.328Z,12.10
2018-06-27T03:37:40.539Z,12.20
2018-06-27T03:40:08.758Z,12.20
2018-06-27T03:42:36.990Z,12.30
2018-06-27T03:45:05.212Z,12.30
2018-06-27T03:47:33.433Z,12.30
2018-06-27T03:50:01.650Z,12.40
2018-06-27T03:52:29.877Z,12.40
2018-06-27T03:54:58.138Z,12.40
2018-06-27T03:57:26.347Z,12.40
2018-06-27T03:59:54.813Z,12.40
2018-06-27T04:02:23.025Z,12.40
2018-06-27T04:04:51.280Z,12.40
2018-06-27T04:07:19.505Z,12.40
2018-06-27T04:09:47.739Z,12.40
2018-06-27T04:12:15.985Z,12.40
2018-06-27T04:14:44.523Z,12.40
2018-06-27T04:17:12.720Z,12.40
2018-06-27T04:19:40.933Z,12.30
2018-06-27T04:22:13.007Z,12.30
2018-06-27T04:24:41.492Z,12.30
2018-06-27T04:27:09.733Z,12.30
2018-06-27T04:29:38.149Z,12.30
2018-06-27T04:32:09.073Z,12.30
2018-06-27T04:34:40.251Z,12.30
2018-06-27T04:37:08.471Z,12.30
2018-06-27T04:39:36.754Z,12.30
2018-06-27T04:42:04.998Z,12.40
2018-06-27T04:44:33.248Z,12.40
2018-06-27T04:47:01.457Z,12.50
2018-06-27T04:49:29.736Z,12.50
2018-06-27T04:51:57.918Z,12.50
2018-06-27T04:54:26.142Z,12.60
2018-06-27T04:56:54.344Z,12.50
2018-06-27T04:59:22.583Z,12.50
2018-06-27T05:01:50.896Z,12.50
2018-06-27T05:04:19.020Z,12.50
2018-06-27T05:06:47.265Z,12.40
2018-06-27T05:09:15.494Z,12.40
2018-06-27T05:11:43.735Z,12.40
2018-06-27T05:14:11.962Z,12.40
2018-06-27T05:16:40.180Z,12.40
2018-06-27T05:19:08.422Z,12.40
2018-06-27T05:21:36.664Z,12.40
2018-06-27T05:24:04.957Z,12.40
2018-06-27T05:26:33.228Z,12.40
2018-06-27T05:29:01.461Z,12.30
2018-06-27T05:31:29.677Z,12.30
2018-06-27T05:33:57.941Z,12.30
2018-06-27T05:36:26.116Z,12.30
2018-06-27T05:38:54.333Z,12.30
2018-06-27T05:41:22.548Z,12.40
2018-06-27T05:43:50.812Z,12.40
2018-06-27T05:46:19.052Z,12.50
2018-06-27T05:48:47.298Z,12.50
2018-06-27T05:51:15.524Z,12.60
2018-06-27T05:53:43.752Z,12.70
2018-06-27T05:56:11.994Z,12.70
2018-06-27T05:58:40.201Z,12.80
2018-06-27T06:01:08.431Z,12.90
2018-06-27T06:03:36.645Z,12.90
2018-06-27T06:06:05.015Z,13.00
2018-06-27T06:08:33.247Z,13.10
2018-06-27T06:11:01.494Z,13.20
2018-06-27T06:13:29.733Z,13.20
2018-06-27T06:15:57.935Z,13.30
2018-06-27T06:18:26.147Z,13.40
2018-06-27T06:20:54.378Z,13.50
2018-06-27T06:23:22.614Z,13.60
2018-06-27T06:25:50.837Z,13.70
2018-06-27T06:28:19.061Z,13.80
2018-06-27T06:30:47.311Z,13.90
2018-06-27T06:33:15.538Z,14.00
2018-06-27T06:35:43.823Z,14.10
2018-06-27T06:38:12.045Z,14.20
2018-06-27T06:40:40.312Z,14.30
2018-06-27T06:43:08.520Z,14.40
2018-06-27T06:45:36.742Z,14.60
2018-06-27T06:48:05.060Z,14.70
2018-06-27T06:50:33.272Z,14.80
2018-06-27T06:53:01.528Z,15.00
2018-06-27T06:55:30.920Z,15.10
2018-06-27T06:57:59.117Z,15.20
2018-06-27T07:00:27.348Z,15.40
2018-06-27T07:02:55.557Z,15.50
2018-06-27T07:05:23.781Z,15.60
2018-06-27T07:07:52.052Z,15.70
2018-06-27T07:10:20.261Z,15.80
2018-06-27T07:12:48.472Z,15.90
2018-06-27T07:15:16.697Z,16.00
2018-06-27T07:17:44.948Z,16.10
2018-06-27T07:22:47.750Z,16.30
2018-06-27T07:25:15.969Z,16.30
2018-06-27T07:27:44.180Z,16.40
2018-06-27T07:30:12.396Z,16.50
2018-06-27T07:32:40.616Z,16.60
2018-06-27T07:35:08.948Z,16.60
2018-06-27T07:37:37.191Z,16.70
2018-06-27T07:40:05.412Z,16.80
2018-06-27T07:42:33.645Z,16.90
2018-06-27T07:45:01.846Z,16.90
2018-06-27T07:47:30.066Z,17.00
2018-06-27T07:49:58.335Z,17.10
2018-06-27T07:52:26.542Z,17.10
2018-06-27T07:54:54.749Z,17.20
2018-06-27T07:57:22.983Z,17.30
2018-06-27T07:59:51.196Z,17.30
2018-06-27T08:02:19.450Z,17.40
2018-06-27T08:04:47.657Z,17.50
2018-06-27T08:07:16.152Z,17.50
2018-06-27T08:09:44.351Z,17.60
2018-06-27T08:12:12.572Z,17.70
2018-06-27T08:14:40.776Z,17.80
2018-06-27T08:17:09.002Z,17.80
2018-06-27T08:19:37.207Z,17.90
2018-06-27T08:22:05.725Z,18.00
2018-06-27T08:24:33.939Z,18.00
2018-06-27T08:27:02.174Z,18.10
2018-06-27T08:29:30.382Z,18.20
2018-06-27T08:31:58.617Z,18.30
2018-06-27T08:34:26.780Z,18.40
2018-06-27T08:36:55.027Z,18.50
2018-06-27T08:39:23.250Z,18.50
2018-06-27T08:41:51.514Z,18.40
2018-06-27T08:44:19.789Z,18.50
2018-06-27T08:46:47.974Z,18.50
2018-06-27T08:49:16.189Z,18.50
2018-06-27T08:51:44.408Z,18.50
2018-06-27T08:54:12.626Z,18.50
2018-06-27T08:56:41.247Z,18.50
2018-06-27T08:59:09.462Z,18.40
2018-06-27T09:01:37.683Z,18.50
2018-06-27T09:04:05.929Z,18.50
2018-06-27T09:06:34.173Z,18.50
2018-06-27T09:09:02.383Z,18.50
2018-06-27T09:11:30.641Z,18.40
2018-06-27T09:13:58.907Z,18.50
2018-06-27T09:16:27.151Z,18.60
2018-06-27T09:18:55.397Z,18.70
2018-06-27T09:21:23.613Z,18.70
2018-06-27T09:23:52.949Z,18.70
2018-06-27T09:26:21.162Z,18.80
2018-06-27T09:28:49.385Z,18.90
2018-06-27T09:31:17.605Z,19.00
2018-06-27T09:33:45.879Z,19.00
2018-06-27T09:36:14.142Z,19.00
2018-06-27T09:38:42.362Z,19.00
2018-06-27T09:41:10.555Z,19.10
2018-06-27T09:43:38.797Z,19.20
2018-06-27T09:46:07.007Z,19.40
2018-06-27T09:48:35.253Z,19.60
2018-06-27T09:51:03.440Z,19.70
2018-06-27T09:53:31.662Z,19.90
2018-06-27T09:55:59.889Z,20.10
2018-06-27T09:58:28.115Z,20.20
2018-06-27T10:00:56.333Z,20.20
2018-06-27T10:03:24.575Z,20.20
2018-06-27T10:05:52.782Z,20.10
2018-06-27T10:08:21.057Z,20.20
2018-06-27T10:10:49.264Z,20.30
2018-06-27T10:13:17.504Z,20.40
2018-06-27T10:15:45.723Z,20.50
2018-06-27T10:18:13.950Z,20.40
2018-06-27T10:20:42.164Z,20.40
2018-06-27T10:23:10.386Z,20.50
2018-06-27T10:25:38.622Z,20.60
2018-06-27T10:28:06.875Z,20.70
2018-06-27T10:30:35.204Z,20.80
2018-06-27T10:33:03.419Z,20.90
2018-06-27T10:35:31.655Z,21.10
2018-06-27T10:37:59.853Z,21.20
2018-06-27T10:40:28.057Z,21.30
2018-06-27T10:45:24.333Z,21.70
2018-06-27T10:47:52.577Z,21.80
2018-06-27T10:50:20.889Z,21.70
2018-06-27T10:52:49.147Z,21.60
2018-06-27T10:55:19.678Z,21.60
2018-06-27T10:57:47.927Z,21.60
2018-06-27T11:00:16.133Z,21.60
2018-06-27T11:02:44.368Z,21.70
2018-06-27T11:05:12.666Z,21.80
2018-06-27T11:07:40.866Z,21.90
2018-06-27T11:10:09.130Z,22.00
2018-06-27T11:12:37.364Z,22.00
2018-06-27T11:15:06.391Z,22.00
2018-06-27T11:17:34.611Z,22.10
2018-06-27T11:20:02.878Z,22.10
2018-06-27T11:22:31.115Z,22.10
2018-06-27T11:24:59.342Z,22.00
2018-06-27T11:27:27.569Z,22.00
2018-06-27T11:29:55.802Z,22.10
2018-06-27T11:32:24.390Z,22.20
2018-06-27T11:34:53.009Z,22.30
2018-06-27T11:37:22.466Z,22.50
2018-06-27T11:39:50.693Z,22.70
2018-06-27T11:42:18.921Z,22.90
2018-06-27T11:44:47.146Z,23.00
2018-06-27T11:47:15.381Z,23.10
2018-06-27T11:49:43.633Z,23.10
2018-06-27T11:52:11.853Z,23.10
2018-06-27T11:54:40.615Z,23.00
2018-06-27T11:57:08.950Z,23.00
2018-06-27T11:59:37.299Z,23.00
2018-06-27T12:02:05.581Z,23.00
2018-06-27T12:04:33.852Z,23.00
2018-06-27T12:07:02.131Z,23.00
2018-06-27T12:09:30.386Z,23.10
2018-06-27T12:11:58.606Z,23.20
2018-06-27T12:14:26.836Z,23.20
2018-06-27T12:16:55.064Z,23.10
2018-06-27T12:19:23.265Z,23.10
2018-06-27T12:21:53.542Z,23.00
2018-06-27T12:24:21.785Z,23.00
2018-06-27T12:26:50.053Z,23.10
2018-06-27T12:29:18.273Z,23.30
2018-06-27T12:31:46.514Z,23.40
2018-06-27T12:34:14.726Z,23.30
2018-06-27T12:36:42.982Z,23.10
2018-06-27T12:39:11.217Z,23.00
2018-06-27T12:41:39.422Z,22.90
2018-06-27T12:44:08.130Z,22.80
2018-06-27T12:46:36.633Z,22.70
2018-06-27T12:49:05.025Z,22.60
2018-06-27T12:51:33.262Z,22.40
2018-06-27T12:54:01.536Z,22.30
2018-06-27T12:56:29.800Z,22.20
2018-06-27T12:58:58.002Z,22.40
2018-06-27T13:01:26.229Z,22.60
2018-06-27T13:03:54.499Z,22.90
2018-06-27T13:06:22.724Z,23.10
2018-06-27T13:08:51.025Z,23.40
2018-06-27T13:11:19.210Z,23.60
2018-06-27T13:13:47.426Z,23.80
2018-06-27T13:16:15.687Z,23.80
2018-06-27T13:18:44.050Z,23.70
2018-06-27T13:21:12.273Z,23.50
2018-06-27T13:23:40.600Z,23.30
2018-06-27T13:26:08.815Z,23.40
2018-06-27T13:28:37.038Z,23.50
2018-06-27T13:31:05.341Z,23.60
2018-06-27T13:33:33.596Z,23.70
2018-06-27T13:36:01.818Z,23.60
2018-06-27T13:38:30.054Z,23.50
2018-06-27T13:40:58.296Z,23.60
2018-06-27T13:43:26.537Z,23.80
2018-06-27T13:45:54.739Z,23.80
2018-06-27T13:48:22.964Z,23.80
2018-06-27T13:50:51.197Z,24.00
2018-06-27T13:53:19.410Z,24.10
2018-06-27T13:55:47.645Z,24.20
2018-06-27T13:58:15.865Z,24.30
2018-06-27T14:00:44.088Z,24.40
2018-06-27T14:03:12.318Z,24.30
2018-06-27T14:05:40.564Z,24.30
2018-06-27T14:08:08.837Z,24.30
2018-06-27T14:10:37.083Z,24.20
2018-06-27T14:13:05.317Z,24.10
2018-06-27T14:15:33.564Z,23.80
2018-06-27T14:18:01.857Z,23.70
2018-06-27T14:20:30.086Z,23.60
2018-06-27T14:22:58.360Z,23.60
2018-06-27T14:25:26.596Z,23.50
2018-06-27T14:27:54.825Z,23.40
2018-06-27T14:30:23.189Z,23.40
2018-06-27T14:32:51.551Z,23.60
2018-06-27T14:35:19.694Z,23.70
2018-06-27T14:37:48.027Z,23.90
2018-06-27T14:40:16.155Z,24.00
2018-06-27T14:42:44.397Z,23.80
2018-06-27T14:45:12.634Z,23.60
2018-06-27T14:47:40.965Z,23.50
2018-06-27T14:52:37.165Z,23.90
2018-06-27T14:55:07.945Z,24.30
2018-06-27T14:57:36.735Z,24.60
2018-06-27T15:02:33.521Z,25.10
2018-06-27T15:05:01.772Z,25.30
2018-06-27T15:07:30.016Z,25.40
2018-06-27T15:09:58.241Z,25.60
2018-06-27T15:12:26.478Z,25.60
2018-06-27T15:14:54.709Z,25.80
2018-06-27T15:17:23.098Z,26.20
2018-06-27T15:19:51.327Z,27.10
2018-06-27T15:22:19.550Z,28.60
2018-06-27T15:24:47.807Z,30.60
2018-06-27T15:27:16.067Z,32.80
2018-06-27T15:29:44.277Z,34.90
2018-06-27T15:32:13.563Z,36.90
2018-06-27T15:34:41.789Z,38.50
2018-06-27T15:37:10.096Z,40.00
2018-06-27T15:39:38.314Z,41.30
2018-06-27T15:42:06.750Z,40.70
2018-06-27T15:44:35.017Z,40.70
2018-06-27T15:47:03.362Z,41.50
2018-06-27T15:49:31.573Z,42.40
2018-06-27T15:51:59.802Z,43.10
2018-06-27T15:56:56.833Z,43.50
2018-06-27T15:59:25.109Z,42.80
2018-06-27T16:01:53.343Z,41.20
2018-06-27T16:04:21.549Z,39.40
2018-06-27T16:06:49.991Z,37.60
2018-06-27T16:09:18.213Z,35.80
2018-06-27T16:11:46.607Z,34.10
2018-06-27T16:14:14.653Z,32.70
2018-06-27T16:16:42.914Z,31.60
2018-06-27T16:19:11.118Z,30.60
2018-06-27T16:21:39.340Z,29.80
2018-06-27T16:24:07.615Z,29.20
2018-06-27T16:26:35.778Z,28.70
2018-06-27T16:29:03.993Z,28.20
2018-06-27T16:31:32.627Z,27.90
2018-06-27T16:34:00.845Z,27.60
2018-06-27T16:36:29.065Z,27.30
2018-06-27T16:38:57.333Z,27.10
2018-06-27T16:41:25.577Z,26.80
2018-06-27T16:43:54.378Z,26.70
2018-06-27T16:46:22.639Z,26.50
2018-06-27T16:48:51.002Z,26.30
2018-06-27T16:51:19.374Z,26.20
2018-06-27T16:53:47.668Z,25.90
2018-06-27T16:56:15.917Z,25.80
2018-06-27T16:58:44.317Z,25.60
2018-06-27T17:01:12.700Z,25.50
2018-06-27T17:03:40.868Z,25.40
2018-06-27T17:06:09.174Z,25.20
2018-06-27T17:08:37.513Z,24.90
2018-06-27T17:11:05.816Z,24.50
2018-06-27T17:13:34.057Z,24.20
2018-06-27T17:16:02.335Z,24.00
2018-06-27T17:18:30.654Z,23.90
2018-06-27T17:20:58.907Z,23.90
2018-06-27T17:23:27.153Z,23.70
2018-06-27T17:25:55.429Z,23.60
2018-06-27T17:28:23.751Z,23.60
2018-06-27T17:30:51.983Z,23.60
2018-06-27T17:33:20.270Z,23.50
2018-06-27T17:35:48.523Z,23.40
2018-06-27T17:38:16.772Z,23.30
2018-06-27T17:40:45.319Z,23.30
2018-06-27T17:43:13.838Z,23.10
2018-06-27T17:45:42.045Z,23.00
2018-06-27T17:48:10.753Z,23.00
2018-06-27T17:50:39.152Z,22.90
2018-06-27T17:53:07.409Z,22.70
2018-06-27T17:55:35.773Z,22.60
2018-06-27T17:58:04.046Z,22.50
2018-06-27T18:00:32.295Z,22.30
2018-06-27T18:03:00.550Z,22.20
2018-06-27T18:05:28.933Z,22.10
2018-06-27T18:07:57.186Z,21.90
2018-06-27T18:10:25.421Z,21.80
2018-06-27T18:12:53.685Z,21.70
2018-06-27T18:15:21.925Z,21.60
2018-06-27T18:17:50.158Z,21.50
2018-06-27T18:20:18.472Z,21.30
2018-06-27T18:22:46.690Z,21.30
2018-06-27T18:25:14.922Z,21.10
2018-06-27T18:27:43.150Z,21.00
2018-06-27T18:30:11.458Z,21.00
2018-06-27T18:32:39.713Z,20.90
2018-06-27T18:35:07.966Z,20.80
2018-06-27T18:37:36.181Z,20.70
2018-06-27T18:40:04.464Z,20.60
2018-06-27T18:42:33.144Z,20.50
2018-06-27T18:45:01.467Z,20.40
2018-06-27T18:47:29.732Z,20.30
2018-06-27T18:49:57.981Z,20.20
2018-06-27T18:52:26.213Z,20.20
2018-06-27T18:54:54.509Z,20.10
2018-06-27T18:57:22.775Z,20.00
2018-06-27T18:59:51.024Z,19.90
2018-06-27T19:02:19.265Z,19.90
2018-06-27T19:04:47.534Z,19.80
2018-06-27T19:07:17.011Z,19.80
2018-06-27T19:09:45.353Z,19.70
2018-06-27T19:12:13.629Z,19.70
2018-06-27T19:14:41.906Z,19.60
2018-06-27T19:17:10.137Z,19.60
2018-06-27T19:19:38.383Z,19.60
2018-06-27T19:22:06.657Z,19.60
2018-06-27T19:24:35.005Z,19.60
2018-06-27T19:27:03.396Z,19.60
2018-06-27T19:29:31.722Z,19.60
2018-06-27T19:31:59.954Z,19.50
2018-06-27T19:34:28.251Z,19.50
2018-06-27T19:36:56.665Z,19.50
2018-06-27T19:39:24.973Z,19.40
2018-06-27T19:41:53.307Z,19.40
2018-06-27T19:44:21.622Z,19.40
2018-06-27T19:46:49.990Z,19.40
2018-06-27T19:49:18.344Z,19.30
2018-06-27T19:51:46.801Z,19.30
2018-06-27T19:54:15.131Z,19.30
2018-06-27T19:56:43.369Z,19.30
2018-06-27T19:59:11.752Z,19.30
2018-06-27T20:01:40.033Z,19.20
2018-06-27T20:04:08.412Z,19.20
2018-06-27T20:06:36.715Z,19.10
2018-06-27T20:09:07.455Z,19.10
2018-06-27T20:11:35.758Z,19.10
2018-06-27T20:14:04.170Z,19.00
2018-06-27T20:16:32.489Z,19.00
2018-06-27T20:19:00.980Z,18.90
2018-06-27T20:23:57.423Z,18.70
2018-06-27T20:26:25.807Z,18.70
2018-06-27T20:28:54.170Z,18.60
2018-06-27T20:31:22.459Z,18.50
2018-06-27T20:33:50.864Z,18.40
2018-06-27T20:36:19.365Z,18.40
2018-06-27T20:38:47.683Z,18.30
2018-06-27T20:41:15.971Z,18.30
2018-06-27T20:43:44.287Z,18.20
2018-06-27T20:48:40.735Z,18.10
2018-06-27T20:53:37.359Z,18.00
2018-06-27T20:56:06.421Z,17.90
2018-06-27T20:58:35.637Z,17.90
2018-06-27T21:01:03.882Z,17.90
2018-06-27T21:03:32.149Z,17.80
2018-06-27T21:06:00.408Z,17.70
2018-06-27T21:08:28.683Z,17.60
2018-06-27T21:10:56.968Z,17.60
2018-06-27T21:13:25.231Z,17.50
2018-06-27T21:15:53.513Z,17.50
2018-06-27T21:20:49.805Z,17.50
2018-06-27T21:23:18.057Z,17.50
2018-06-27T21:25:46.336Z,17.40
2018-06-27T21:28:14.643Z,17.40
2018-06-27T21:30:42.917Z,17.30
2018-06-27T21:33:11.183Z,17.30
2018-06-27T21:35:39.451Z,17.30
2018-06-27T21:38:07.833Z,17.20
2018-06-27T21:43:04.338Z,17.20
2018-06-27T21:45:32.609Z,17.10
2018-06-27T21:48:00.846Z,17.10
2018-06-27T21:50:29.152Z,17.00
2018-06-27T21:52:57.419Z,17.00
2018-06-27T21:55:25.674Z,17.00
2018-06-27T21:57:53.940Z,16.90
2018-06-27T22:00:24.442Z,16.90
2018-06-27T22:02:53.057Z,16.80
2018-06-27T22:05:21.395Z,16.80
2018-06-27T22:07:49.655Z,16.70
2018-06-27T22:10:17.976Z,16.70
2018-06-27T22:12:46.269Z,16.60
2018-06-27T22:15:14.561Z,16.60
2018-06-27T22:17:42.885Z,16.50
2018-06-27T22:20:11.133Z,16.50
2018-06-27T22:22:39.438Z,16.50
2018-06-27T22:25:07.818Z,16.50
2018-06-27T22:27:36.166Z,16.40
2018-06-27T22:30:04.734Z,16.40
2018-06-27T22:32:33.017Z,16.40
2018-06-27T22:35:01.285Z,16.30
2018-06-27T22:37:29.667Z,16.30
2018-06-27T22:39:57.930Z,16.20
2018-06-27T22:44:54.208Z,16.10
2018-06-27T22:47:22.547Z,16.10
2018-06-27T22:49:51.029Z,16.10
2018-06-27T22:52:19.297Z,16.00
2018-06-27T22:54:47.567Z,16.00
2018-06-27T22:59:43.855Z,16.00
2018-06-27T23:02:12.182Z,15.90
2018-06-27T23:04:40.451Z,15.90
2018-06-27T23:07:08.730Z,15.80
2018-06-27T23:09:36.990Z,15.80
2018-06-27T23:12:05.457Z,15.70
2018-06-27T23:14:33.731Z,15.70
2018-06-27T23:17:02.092Z,15.70
2018-06-27T23:19:30.358Z,15.60
2018-06-27T23:21:58.666Z,15.60
2018-06-27T23:24:26.959Z,15.60
2018-06-27T23:26:55.250Z,15.50
2018-06-27T23:29:23.519Z,15.50
2018-06-27T23:34:19.977Z,15.40
2018-06-27T23:36:48.282Z,15.30
2018-06-27T23:39:16.554Z,15.30
2018-06-27T23:41:44.865Z,15.20
2018-06-27T23:44:13.140Z,15.20
2018-06-27T23:46:41.494Z,15.20
2018-06-27T23:49:09.856Z,15.20
2018-06-27T23:51:38.254Z,15.20
2018-06-27T23:54:06.629Z,15.10
2018-06-27T23:56:34.937Z,15.10
2018-06-27T23:59:03.352Z,15.20
